Latest Weather Observations for Loxton

IDS60801

Issued at 6:02 pm CST Sunday 24 July 2016 (issued every 30 minutes, with the page automatically refreshed every 10 minutes)

About weather observations | Map of weather stations | Latest weather observations for SA | Other Formats
Station Details ID: 024024 Name: LOXTON RESEARCH CENTRE Lat: -34.44 Lon: 140.60 Height: 30.1 m
Data from the previous 72 hours. | See also: Recent months at Loxton
Date/Time
CST
Temp
°C
App
Temp
°C
Dew
Point
°C
Rel
Hum
%
Delta-T
°C
Wind Press
QNH
hPa
Press
MSL
hPa
Rain since
9am
mm
Dir  Spd
km/h
Gust
km/h
Spd
kts
Gust
kts
24/06:00pm 10.6 5.4 3.6 62 3.1 WNW 20 32 11 17 1009.7 1009.8 1.8
24/05:30pm 10.8 5.6 3.5 60 3.2 WNW 20 32 11 17 1009.5 1009.6 1.8
24/05:00pm 11.3 4.6 3.4 58 3.5 WNW 28 44 15 24 1009.2 1009.3 1.8
24/04:37pm 11.7 4.9 3.1 55 3.8 WNW 28 46 15 25 1008.9 1009.0 1.8
24/04:30pm 12.2 5.7 2.9 53 4.1 WNW 26 43 14 23 1008.9 1009.0 1.8
24/04:15pm 12.1 5.2 2.7 52 4.1 WNW 28 46 15 25 1008.6 1008.7 1.8
24/04:00pm 12.2 5.9 3.5 55 3.9 WNW 26 35 14 19 1008.6 1008.7 1.8
24/03:30pm 11.8 5.3 2.6 53 4.0 WNW 26 43 14 23 1008.6 1008.7 1.8
24/03:00pm 11.9 3.0 1.0 47 4.6 WNW 37 57 20 31 1008.7 1008.8 1.8
24/02:30pm 10.7 4.2 6.5 75 2.0 WNW 30 54 16 29 1008.6 1008.7 1.8
24/02:16pm 11.9 4.5 4.2 59 3.5 WNW 32 50 17 27 1008.4 1008.5 1.6
24/02:00pm 12.2 5.0 4.8 60 3.4 WNW 32 48 17 26 1008.4 1008.5 1.6
24/01:30pm 11.0 5.1 5.6 69 2.5 NW 26 37 14 20 1008.6 1008.7 1.6
24/01:00pm 10.1 5.2 6.7 79 1.6 WNW 22 41 12 22 1009.1 1009.2 1.6
24/12:32pm 9.3 3.0 7.4 88 0.9 WNW 30 48 16 26 1009.6 1009.7 1.4
24/12:30pm 9.4 2.7 7.5 88 0.9 WNW 32 48 17 26 1009.6 1009.7 1.0
24/12:17pm 10.8 3.5 5.6 70 2.4 WNW 33 61 18 33 1009.4 1009.5 0.2
24/12:00pm 13.2 6.2 1.9 46 4.9 NW 28 48 15 26 1009.0 1009.1 0.0
24/11:36am 13.1 5.6 1.5 45 5.0 NW 30 48 16 26 1009.5 1009.6 0.0
24/11:30am 13.2 5.4 1.6 45 5.0 NW 32 48 17 26 1009.4 1009.5 0.0
24/11:07am 13.0 5.7 2.2 48 4.7 NNW 30 48 16 26 1009.7 1009.8 0.0
24/11:00am 12.9 5.7 3.0 51 4.4 NNW 30 43 16 23 1009.8 1009.9 0.0
24/10:58am 13.2 6.4 3.1 50 4.5 NNW 28 43 15 23 1009.9 1010.0 0.0
24/10:30am 12.3 6.4 4.1 57 3.7 NW 24 37 13 20 1010.5 1010.6 0.0
24/10:00am 12.2 6.5 2.9 53 4.1 NNW 22 35 12 19 1010.3 1010.4 0.0
24/09:30am 11.4 6.1 2.9 56 3.7 N 20 28 11 15 1010.4 1010.5 0.0
24/09:00am 10.0 5.3 3.3 63 2.9 N 17 24 9 13 1010.7 1010.8 0.0
24/08:30am 8.1 3.5 3.7 74 1.9 NNE 17 20 9 11 1010.8 1010.9 0.0
24/08:00am 6.7 2.5 3.6 80 1.3 N 15 20 8 11 1011.3 1011.4 0.0
24/07:30am 6.2 3.0 3.3 82 1.2 N 9 15 5 8 1011.6 1011.7 0.0
24/07:00am 5.9 2.4 3.5 84 1.0 N 11 20 6 11 1011.8 1011.9 0.0
24/06:30am 3.5 1.6 2.8 95 0.3 NNE 2 6 1 3 1011.9 1012.0 0.0
24/06:00am 4.7 1.6 3.5 92 0.5 N 9 13 5 7 1012.0 1012.1 0.0
24/05:30am 4.4 2.3 3.7 95 0.3 WNW 4 7 2 4 1012.2 1012.3 0.0
24/05:00am 3.4 1.1 2.9 97 0.2 NNW 4 9 2 5 1012.3 1012.4 0.0
24/04:30am 1.7 -0.1 1.2 96 0.2 CALM 0 0 0 0 1012.2 1012.3 0.0
24/04:00am 1.7 -1.3 0.9 94 0.3 N 6 7 3 4 1012.3 1012.4 0.0
24/03:30am 1.5 -1.5 1.0 96 0.2 N 6 7 3 4 1012.6 1012.7 0.0
24/03:00am 4.0 1.1 2.5 90 0.6 NNW 7 11 4 6 1013.4 1013.4 0.0
24/02:30am 3.0 1.4 2.2 94 0.3 CALM 0 0 0 0 1013.9 1013.9 0.0
24/02:00am 4.1 1.4 2.9 92 0.5 NNW 6 7 3 4 1014.4 1014.4 0.0
24/01:30am 5.3 2.6 3.6 89 0.7 NNW 7 9 4 5 1014.8 1014.8 0.0
24/01:00am 5.6 2.5 3.7 87 0.8 NNW 9 11 5 6 1015.2 1015.2 0.0
24/12:30am 6.2 2.8 4.1 86 0.9 NW 11 13 6 7 1015.4 1015.4 0.0
24/12:00am 6.3 3.3 4.0 85 1.0 NW 9 11 5 6 1015.5 1015.5 0.0
 
Date/Time
CST
Temp
°C
App
Temp
°C
Dew
Point
°C
Rel
Hum
%
Delta-T
°C
Wind Press
QNH
hPa
Press
MSL
hPa
Rain since
9am
mm
Dir  Spd
km/h
Gust
km/h
Spd
kts
Gust
kts
23/11:30pm 6.8 3.8 4.2 83 1.1 NW 9 13 5 7 1015.6 1015.6 0.0
23/11:00pm 7.6 5.0 4.4 80 1.4 WNW 7 11 4 6 1015.7 1015.7 0.0
23/10:30pm 8.3 5.8 4.7 78 1.6 NW 7 9 4 5 1015.7 1015.7 0.0
23/10:00pm 7.4 5.7 5.8 90 0.7 NW 4 7 2 4 1015.7 1015.7 0.0
23/09:30pm 7.8 6.1 5.8 87 0.9 WNW 4 7 2 4 1015.9 1015.9 0.0
23/09:00pm 8.7 7.7 5.8 82 1.3 CALM 0 0 0 0 1016.0 1016.0 0.0
23/08:30pm 8.8 7.9 6.2 84 1.2 CALM 0 0 0 0 1016.0 1016.0 0.0
23/08:00pm 8.7 7.7 5.6 81 1.4 CALM 0 0 0 0 1015.9 1015.9 0.0
23/07:30pm 8.0 7.0 5.6 85 1.1 CALM 0 0 0 0 1015.7 1015.7 0.0
23/07:00pm 8.1 7.2 5.9 86 1.0 CALM 0 0 0 0 1015.6 1015.6 0.0
23/06:30pm 8.1 7.0 5.2 82 1.3 CALM 0 0 0 0 1015.2 1015.2 0.0
23/06:00pm 10.4 9.5 6.1 75 2.0 CALM 0 0 0 0 1014.9 1014.9 0.0
23/05:30pm 11.3 8.9 4.2 61 3.2 SSW 6 9 3 5 1014.9 1014.9 0.0
23/05:00pm 12.0 8.9 3.7 57 3.7 SW 9 13 5 7 1014.9 1014.9 0.0
23/04:30pm 12.8 8.8 2.8 50 4.4 SW 13 19 7 10 1014.9 1014.9 0.0
23/04:00pm 12.9 9.0 3.2 51 4.3 SW 13 17 7 9 1014.9 1014.9 0.0
23/03:30pm 13.8 8.8 1.5 43 5.3 WSW 17 24 9 13 1014.7 1014.7 0.0
23/03:00pm 13.8 8.3 0.6 40 5.6 WSW 19 28 10 15 1014.5 1014.5 0.0
23/02:30pm 13.5 8.0 0.8 42 5.4 WSW 19 26 10 14 1014.4 1014.4 0.0
23/02:00pm 14.6 10.1 2.1 43 5.5 W 15 22 8 12 1014.2 1014.2 0.0
23/01:30pm 13.9 8.6 2.0 44 5.2 WSW 19 32 10 17 1014.2 1014.2 0.0
23/01:00pm 12.9 8.4 4.1 55 4.0 WSW 17 22 9 12 1014.3 1014.3 0.0
23/12:30pm 11.7 7.0 3.3 56 3.7 SW 17 26 9 14 1014.5 1014.5 0.0
23/12:00pm 13.7 9.1 3.8 51 4.5 WSW 17 26 9 14 1014.8 1014.8 0.0
23/11:30am 13.1 9.3 3.8 53 4.2 SW 13 20 7 11 1014.6 1014.6 0.0
23/11:00am 12.8 8.6 3.9 54 4.0 WSW 15 24 8 13 1014.9 1014.9 0.0
23/10:30am 11.8 8.5 6.3 69 2.6 W 13 20 7 11 1015.0 1015.0 0.0
23/10:00am 11.1 6.9 5.9 70 2.4 W 17 24 9 13 1014.8 1014.8 0.0
23/09:30am 10.6 6.9 6.1 74 2.1 W 15 20 8 11 1014.4 1014.4 0.0
23/09:00am 10.1 6.2 5.5 73 2.1 W 15 26 8 14 1013.7 1013.7 0.8
23/08:30am 8.9 5.9 5.8 81 1.4 WNW 11 15 6 8 1013.4 1013.4 0.8
23/08:00am 8.2 4.7 5.3 82 1.3 W 13 17 7 9 1012.8 1012.8 0.8
23/07:30am 7.9 5.2 5.4 84 1.1 WNW 9 13 5 7 1012.4 1012.5 0.8
23/07:00am 8.1 4.9 5.2 82 1.3 WNW 11 15 6 8 1011.8 1011.9 0.8
23/06:30am 8.1 4.1 4.9 80 1.4 W 15 22 8 12 1011.2 1011.3 0.8
23/06:00am 8.1 4.4 4.7 79 1.5 W 13 17 7 9 1010.6 1010.7 0.8
23/05:30am 8.3 4.7 4.9 79 1.5 W 13 20 7 11 1010.3 1010.4 0.8
23/05:00am 8.6 5.1 5.3 80 1.5 WNW 13 20 7 11 1009.9 1010.0 0.8
23/04:30am 8.6 5.1 5.3 80 1.5 WNW 13 20 7 11 1009.4 1009.5 0.8
23/04:00am 9.1 4.4 5.1 76 1.8 W 19 26 10 14 1009.0 1009.1 0.8
23/03:30am 9.2 5.6 5.2 76 1.8 W 13 19 7 10 1008.8 1008.9 0.8
23/03:00am 9.3 4.4 5.1 75 1.9 W 20 28 11 15 1008.2 1008.3 0.8
23/02:30am 9.5 3.8 4.8 72 2.1 W 24 39 13 21 1007.6 1007.7 0.8
23/02:00am 9.8 4.1 4.7 70 2.3 WNW 24 41 13 22 1007.4 1007.5 0.8
23/01:30am 10.1 5.1 4.5 68 2.5 WNW 20 32 11 17 1007.1 1007.2 0.8
23/01:00am 10.2 4.4 4.4 67 2.6 WNW 24 35 13 19 1006.5 1006.6 0.8
23/12:30am 10.4 3.8 4.1 65 2.8 WNW 28 43 15 23 1006.0 1006.1 0.8
23/12:00am 10.3 4.5 4.3 66 2.7 W 24 37 13 20 1006.1 1006.2 0.8
 
Date/Time
CST
Temp
°C
App
Temp
°C
Dew
Point
°C
Rel
Hum
%
Delta-T
°C
Wind Press
QNH
hPa
Press
MSL
hPa
Rain since
9am
mm
Dir  Spd
km/h
Gust
km/h
Spd
kts
Gust
kts
22/11:43pm 10.5 3.5 4.0 64 2.9 WNW 30 50 16 27 1005.7 1005.8 0.8
22/11:30pm 10.4 3.4 3.9 64 2.9 W 30 46 16 25 1005.8 1005.9 0.8
22/11:06pm 10.6 2.9 3.6 62 3.1 WNW 33 52 18 28 1005.6 1005.7 0.8
22/11:00pm 10.7 3.0 3.4 60 3.2 W 33 50 18 27 1005.5 1005.6 0.8
22/10:30pm 11.1 3.6 4.5 64 3.0 W 33 56 18 30 1005.6 1005.7 0.8
22/10:23pm 11.3 3.7 3.9 60 3.3 W 33 56 18 30 1005.3 1005.4 0.8
22/10:00pm 11.3 5.1 4.2 61 3.2 WNW 26 39 14 21 1005.0 1005.1 0.8
22/09:30pm 11.2 5.4 4.6 64 3.0 WNW 24 41 13 22 1004.8 1004.9 0.8
22/09:00pm 11.5 5.0 4.7 63 3.1 WNW 28 48 15 26 1004.6 1004.7 0.8
22/08:30pm 12.0 5.3 5.8 66 2.9 WNW 30 48 16 26 1004.5 1004.6 0.8
22/08:29pm 12.1 5.4 5.7 65 3.0 WNW 30 48 16 26 1004.5 1004.6 0.8
22/08:00pm 12.0 6.6 6.3 68 2.7 WNW 24 37 13 20 1004.0 1004.1 0.8
22/07:30pm 11.9 5.7 6.2 68 2.7 WNW 28 43 15 23 1004.0 1004.1 0.8
22/07:02pm 12.5 5.1 5.2 61 3.4 WNW 33 56 18 30 1003.5 1003.6 0.8
22/07:00pm 12.4 5.1 5.3 62 3.3 WNW 33 46 18 25 1003.5 1003.6 0.8
22/06:30pm 12.3 5.3 6.2 66 2.9 WNW 32 50 17 27 1002.9 1003.0 0.8
22/06:00pm 12.6 5.3 7.0 68 2.7 W 35 54 19 29 1002.7 1002.8 0.8
22/05:42pm 12.6 6.7 9.0 79 1.8 W 30 52 16 28 1002.4 1002.5 0.6
22/05:30pm 12.6 8.8 9.7 82 1.5 W 20 32 11 17 1002.1 1002.2 0.6
22/05:00pm 12.1 7.5 9.8 86 1.2 WNW 24 32 13 17 1001.7 1001.8 0.6
22/04:31pm 12.3 6.9 9.4 82 1.5 W 28 48 15 26 1001.4 1001.5 0.4
22/04:30pm 12.2 7.2 9.7 85 1.3 W 26 43 14 23 1001.4 1001.5 0.4
22/04:00pm 12.5 6.6 9.1 80 1.7 W 30 50 16 27 1001.3 1001.4 0.2
22/03:43pm 13.3 6.2 8.1 71 2.6 W 35 54 19 29 1001.2 1001.3 0.0
22/03:36pm 15.9 9.7 6.3 53 4.7 WNW 28 52 15 28 1001.1 1001.1 0.0
22/03:30pm 17.6 11.8 6.3 47 5.6 NW 26 43 14 23 1000.2 1000.2 0.0
22/03:04pm 18.0 11.8 6.3 46 5.8 NW 28 50 15 27 1000.1 1000.1 0.0
22/03:00pm 17.7 11.9 6.4 47 5.6 NW 26 41 14 22 1000.1 1000.1 0.0
22/02:31pm 17.9 11.8 6.5 47 5.6 NW 28 46 15 25 1000.5 1000.5 0.0
22/02:30pm 18.0 12.3 6.9 48 5.6 NW 26 43 14 23 1000.5 1000.5 0.0
22/02:15pm 17.8 11.4 7.1 49 5.4 NW 30 54 16 29 1000.6 1000.6 0.0
22/02:00pm 17.8 12.2 7.1 49 5.4 NW 26 41 14 22 1000.7 1000.7 0.0
22/01:30pm 16.9 12.5 7.4 53 4.8 NW 20 35 11 19 1001.2 1001.3 0.0
22/01:00pm 16.8 11.7 7.5 54 4.7 NW 24 35 13 19 1001.8 1001.9 0.0
22/12:30pm 16.7 12.3 7.3 54 4.7 WNW 20 35 11 19 1002.3 1002.4 0.0
22/12:00pm 16.8 11.9 7.0 52 4.9 WNW 22 35 12 19 1002.9 1003.0 0.0
22/11:30am 16.8 10.8 7.2 53 4.8 WNW 28 43 15 23 1003.1 1003.2 0.0
22/11:00am 16.9 12.1 7.4 53 4.8 WNW 22 35 12 19 1003.9 1004.0 0.0
22/10:30am 16.5 11.8 7.6 55 4.5 WNW 22 37 12 20 1004.3 1004.4 0.0
22/10:00am 16.3 12.2 8.0 58 4.2 WNW 19 32 10 17 1004.5 1004.6 0.0
22/09:30am 16.2 11.9 7.9 58 4.2 WNW 20 32 11 17 1005.0 1005.1 0.0
22/09:00am 16.3 11.8 6.8 53 4.7 WNW 20 33 11 18 1004.3 1004.4 0.0
22/08:30am 16.4 12.2 7.4 55 4.5 WNW 19 33 10 18 1004.3 1004.4 0.0
22/08:00am 16.9 11.7 7.4 53 4.8 W 24 37 13 20 1004.7 1004.8 0.0
22/07:30am 17.3 11.8 7.4 52 5.0 W 26 41 14 22 1004.7 1004.8 0.0
22/07:00am 17.8 13.8 8.1 53 5.0 W 19 28 10 15 1003.8 1003.9 0.0
22/06:30am 18.6 13.5 7.7 49 5.6 W 24 32 13 17 1003.8 1003.9 0.0
22/06:00am 19.1 14.4 7.6 47 5.9 WNW 22 39 12 21 1003.2 1003.3 0.0
22/05:30am 19.3 15.4 8.6 50 5.6 WNW 19 30 10 16 1003.0 1003.1 0.0
22/05:00am 19.5 17.0 12.4 63 4.0 WNW 17 24 9 13 1003.4 1003.5 0.0
22/04:30am 19.8 16.9 13.9 69 3.4 WNW 22 35 12 19 1003.2 1003.3 0.0
22/04:00am 20.3 18.0 14.1 67 3.6 WNW 19 28 10 15 1003.0 1003.1 0.0
22/03:30am 20.7 18.4 14.2 66 3.8 WNW 19 26 10 14 1003.4 1003.5 0.0
22/03:00am 20.8 18.1 14.7 68 3.6 NNW 22 35 12 19 1002.8 1002.9 0.0
22/02:30am 20.8 18.1 14.7 68 3.6 N 22 33 12 18 1003.0 1003.1 0.0
22/02:00am 20.4 17.8 15.0 71 3.2 N 22 35 12 19 1003.7 1003.8 0.0
22/01:30am 20.0 17.5 15.1 73 2.9 N 22 33 12 18 1004.3 1004.4 0.0
22/01:00am 19.7 17.6 15.1 75 2.7 N 20 30 11 16 1004.8 1004.9 0.0
22/12:30am 19.6 17.4 14.8 74 2.8 N 20 32 11 17 1005.3 1005.4 0.0
22/12:00am 20.0 17.7 14.7 71 3.1 N 20 33 11 18 1006.2 1006.3 0.0
 
Date/Time
CST
Temp
°C
App
Temp
°C
Dew
Point
°C
Rel
Hum
%
Delta-T
°C
Wind Press
QNH
hPa
Press
MSL
hPa
Rain since
9am
mm
Dir  Spd
km/h
Gust
km/h
Spd
kts
Gust
kts
21/11:30pm 20.2 17.4 14.4 69 3.4 N 22 35 12 19 1006.3 1006.4 0.0
21/11:00pm 20.5 17.9 13.9 66 3.8 N 20 32 11 17 1006.8 1006.9 0.0
21/10:30pm 20.5 18.1 13.8 65 3.9 N 19 26 10 14 1007.1 1007.2 0.0
21/10:00pm 20.7 18.0 13.6 64 4.1 N 20 30 11 16 1007.6 1007.7 0.0
21/09:30pm 20.6 18.0 13.3 63 4.2 N 19 28 10 15 1008.1 1008.2 0.0
21/09:00pm 20.5 18.2 12.9 61 4.3 N 17 28 9 15 1008.3 1008.4 0.0
21/08:30pm 19.8 17.4 12.7 63 4.0 N 17 24 9 13 1008.3 1008.4 0.0
21/08:00pm 19.8 17.4 12.5 62 4.1 N 17 22 9 12 1008.3 1008.4 0.0
21/07:30pm 19.9 17.4 12.4 62 4.2 NNE 17 24 9 13 1008.4 1008.5 0.0
21/07:00pm 19.1 17.4 12.3 64 3.8 NNE 13 17 7 9 1008.8 1008.9 0.0
21/06:30pm 18.9 17.8 12.1 64 3.8 NNE 9 11 5 6 1008.9 1009.0 0.0

Other Formats:

Comma delimited format used in spreadsheet applications
http://www.bom.gov.au/fwo/IDS60801/IDS60801.94682.axf

JavaScript Object Notation format (JSON) in row-major order
http://www.bom.gov.au/fwo/IDS60801/IDS60801.94682.json